Flight Track Log - Related Links

Times and Time Zones

All times are in EDT time to prevent confusion due to time zone crossing. See the N973TW flight status page for this flight to view local times or setup timezone preferences in your user account.

Time Position Orientation Groundspeed Altitude Reporting Facility
EDT Latitude Longitude Course Direction KTS MPH feet Rate Location/Type
Tue 11:54:15 AM 32.8695 -97.0264 265° West  Level FlightAware Approximate
Tue 11:54:53 AM 32.8678 -97.0514 193° South 157 181 2,100  Level FAA TRACON SMA TRACON (SMA)
Tue 11:55:33 AM 32.8322 -97.0608 198° South 199 229 3,100 2,025 Climbing FAA TRACON SMA TRACON (SMA)
Tue 11:56:13 AM 32.7961 -97.0747 226° Southwest 223 257 4,800 2,775 Climbing FAA TRACON SMA TRACON (SMA)
Tue 11:56:53 AM 32.7658 -97.1114 300° West 250 288 6,800 2,775 Climbing FAA TRACON SMA TRACON (SMA)
Tue 11:57:33 AM 32.7919 -97.1650 317° Northwest 293 337 8,500 2,658 Climbing FAA TRACON SMA TRACON (SMA)
Tue 11:58:12 AM 32.8300 -97.2067 340° North 308 354 10,300 2,127 Climbing FAA TRACON SMA TRACON (SMA)
Tue 11:58:52 AM 32.8878 -97.2314 357° North 338 389 11,300 1,425 Climbing FAA TRACON SMA TRACON (SMA)
Tue 11:59:32 AM 32.9503 -97.2347 359° North 368 423 12,200 1,950 Climbing FAA TRACON SMA TRACON (SMA)
Tue 12:00:12 PM 33.0272 -97.2369 358° North 396 456 13,900 2,582 Climbing FAA TRACON SMA TRACON (SMA)
Tue 12:00:51 PM 33.0956 -97.2400 358° North 399 459 15,600 2,506 Climbing FAA TRACON SMA TRACON (SMA)
Tue 12:01:31 PM 33.1728 -97.2431 358° North 400 460 17,200 2,250 Climbing FAA TRACON SMA TRACON (SMA)
Tue 12:02:11 PM 33.2519 -97.2467 358° North 412 474 18,600 2,025 Climbing FAA TRACON SMA TRACON (SMA)
Tue 12:02:51 PM 33.3239 -97.2500 358° North 419 482 19,900 2,025 Climbing FAA TRACON SMA TRACON (SMA)
Tue 12:03:31 PM 33.4050 -97.2533 360° North 419 482 21,300 1,875 Climbing FAA TRACON SMA TRACON (SMA)
Tue 12:04:11 PM 33.4775 -97.2531 North 424 488 22,400 1,575 Climbing FAA TRACON SMA TRACON (SMA)
Tue 12:04:51 PM 33.5617 -97.2439 North 436 502 23,400 1,575 Climbing FAA TRACON SMA TRACON (SMA)
Tue 12:05:31 PM 33.6467 -97.2350 North 443 510 24,500 1,286 Climbing FAA TRACON SMA TRACON (SMA)
Tue 12:06:15 PM 33.7333 -97.2272 North 450 518 25,200 1,185 Climbing FAA TRACON SMA TRACON (SMA)
Tue 12:06:52 PM 33.8122 -97.2164 North 462 532 26,100 1,500 Climbing FAA TRACON SMA TRACON (SMA)
Tue 12:07:23 PM 33.8811 -97.2083 North 451 519 26,900 1,385 Climbing Fort Worth Center
Tue 12:08:23 PM 34.0103 -97.1931 North 465 535 28,200 1,400 Climbing Fort Worth Center
Tue 12:09:23 PM 34.1208 -97.1803 345° North 465 535 29,700 1,500 Climbing Fort Worth Center
Tue 12:10:23 PM 34.2378 -97.2175 311° West 433 498 31,200 1,250 Climbing Fort Worth Center
Tue 12:11:23 PM 34.3194 -97.3331 308° West 388 447 32,200 950 Climbing Fort Worth Center
Tue 12:12:23 PM 34.3903 -97.4436 309° West 397 457 33,100 900 Climbing Fort Worth Center
Tue 12:13:23 PM 34.4633 -97.5519 309° West 405 466 34,000 450 Climbing Fort Worth Center
Tue 12:14:23 PM 34.5342 -97.6581 310° West 411 473 34,000  Level Fort Worth Center
Tue 12:15:23 PM 34.6069 -97.7642 308° West 406 467 34,000  Level Fort Worth Center
Tue 12:16:23 PM 34.6775 -97.8731 308° West 411 473 34,000  Level Fort Worth Center
Tue 12:17:23 PM 34.7417 -97.9719 309° West 411 473 34,000  Level Fort Worth Center
Tue 12:18:23 PM 34.8142 -98.0811 310° West 416 479 34,000  Level Fort Worth Center
Tue 12:19:23 PM 34.8886 -98.1906 309° West 416 479 34,000  Level Fort Worth Center
Tue 12:20:23 PM 34.9631 -98.3028 309° West 416 479 34,000  Level Fort Worth Center
Tue 12:21:23 PM 35.0372 -98.4153 311° West 416 479 34,000  Level Fort Worth Center
Tue 12:22:23 PM 35.1197 -98.5328 308° West 422 486 34,000  Level Fort Worth Center
Tue 12:23:23 PM 35.1936 -98.6483 308° West 422 486 34,000  Level Fort Worth Center
Tue 12:24:23 PM 35.2656 -98.7611 309° West 427 491 34,000  Level Fort Worth Center
Tue 12:25:23 PM 35.3392 -98.8744 308° West 427 491 34,000  Level Fort Worth Center
Tue 12:26:23 PM 35.4108 -98.9878 309° West 427 491 34,000  Level Fort Worth Center
Tue 12:27:23 PM 35.4703 -99.0781 308° West 427 491 34,000  Level Fort Worth Center
Tue 12:29:36 PM 35.6469 -99.3547 308° West 426 490 34,000  Level Kansas City Center
Tue 12:30:36 PM 35.7117 -99.4558 317° Northwest 431 496 34,000  Level Kansas City Center
Tue 12:31:36 PM 35.7950 -99.5533 317° Northwest 420 483 34,000  Level Kansas City Center
Tue 12:32:36 PM 35.8806 -99.6511 319° Northwest 420 483 34,000  Level Kansas City Center
Tue 12:33:36 PM 35.9703 -99.7469 317° Northwest 420 483 34,000  Level Kansas City Center
Tue 12:34:36 PM 36.0558 -99.8450 318° Northwest 420 483 34,000  Level Kansas City Center
Tue 12:35:36 PM 36.1433 -99.9411 318° Northwest 425 489 34,000  Level Kansas City Center
Tue 12:36:36 PM 36.2286 -100.0372 318° Northwest 425 489 34,000  Level Kansas City Center
Tue 12:37:36 PM 36.3178 -100.1364 317° Northwest 425 489 34,000  Level Kansas City Center
Tue 12:38:36 PM 36.4008 -100.2325 317° Northwest 425 489 34,000  Level Kansas City Center
Tue 12:39:36 PM 36.4858 -100.3319 319° Northwest 425 489 34,000  Level Kansas City Center
Tue 12:40:36 PM 36.5828 -100.4375 317° Northwest 425 489 34,000  Level Kansas City Center
Tue 12:41:36 PM 36.6675 -100.5372 318° Northwest 425 489 34,000  Level Kansas City Center
Tue 12:42:36 PM 36.7483 -100.6292 317° Northwest 430 495 34,000  Level Kansas City Center
Tue 12:43:36 PM 36.8331 -100.7267 317° Northwest 423 487 34,000  Level Kansas City Center
Tue 12:44:36 PM 36.9294 -100.8383 317° Northwest 428 493 34,000  Level Kansas City Center
Tue 12:45:36 PM 37.0139 -100.9364 313° West 428 493 34,000  Level Kansas City Center
Tue 12:46:36 PM 37.0933 -101.0447 311° West 428 493 34,000  Level Kansas City Center
Tue 12:47:36 PM 37.1631 -101.1444 310° West 421 484 34,000  Level Kansas City Center
Tue 12:48:36 PM 37.2458 -101.2667 311° West 421 484 34,000  Level Kansas City Center
Tue 12:49:36 PM 37.3231 -101.3781 310° West 416 479 34,000  Level Kansas City Center
Tue 12:50:36 PM 37.3978 -101.4894 311° West 416 479 34,000  Level Kansas City Center
Tue 12:51:36 PM 37.4669 -101.5900 310° West 421 484 34,000  Level Kansas City Center
Tue 12:52:36 PM 37.5417 -101.7017 311° West 421 484 34,000  Level Kansas City Center
Tue 12:54:18 PM 37.6758 -101.8997 309° West 424 488 34,000  Level Denver Center
Tue 12:55:18 PM 37.7425 -102.0031 311° West 424 488 34,000  Level Denver Center
Tue 12:56:18 PM 37.8175 -102.1114 310° West 424 488 34,000  Level Denver Center
Tue 12:57:18 PM 37.8994 -102.2353 310° West 419 482 34,000  Level Denver Center
Tue 12:58:18 PM 37.9722 -102.3469 310° West 419 482 34,000  Level Denver Center
Tue 12:59:18 PM 38.0383 -102.4458 311° West 414 476 34,000  Level Denver Center
Tue 01:00:18 PM 38.1217 -102.5678 311° West 419 482 34,000  Level Denver Center
Tue 01:01:18 PM 38.1964 -102.6772 327° Northwest 414 476 34,000  Level Denver Center
Tue 01:02:18 PM 38.2928 -102.7569 332° Northwest 414 476 34,000  Level Denver Center
Tue 01:03:18 PM 38.3867 -102.8208 331° Northwest 426 490 34,000  Level Denver Center
Tue 01:04:18 PM 38.5019 -102.9025 332° Northwest 426 490 34,000  Level Denver Center
Tue 01:05:18 PM 38.6019 -102.9717 331° Northwest 426 490 34,000  Level Denver Center
Tue 01:06:18 PM 38.7022 -103.0439 332° Northwest 421 484 34,000  Level Denver Center
Tue 01:07:18 PM 38.8064 -103.1161 328° Northwest 421 484 34,000  Level Denver Center
Tue 01:08:18 PM 38.9047 -103.1942 330° Northwest 421 484 34,000  Level Denver Center
Tue 01:09:18 PM 39.0069 -103.2694 331° Northwest 421 484 34,000  Level Denver Center
Tue 01:10:18 PM 39.1089 -103.3422 331° Northwest 421 484 34,000  Level Denver Center
Tue 01:11:18 PM 39.2025 -103.4106 330° Northwest 421 484 34,000  Level Denver Center
Tue 01:12:18 PM 39.3006 -103.4839 330° Northwest 421 484 34,000  Level Denver Center
Tue 01:13:18 PM 39.4047 -103.5628 330° Northwest 421 484 34,000  Level Denver Center
Tue 01:14:18 PM 39.5044 -103.6367 330° Northwest 416 479 34,000  Level Denver Center
Tue 01:15:18 PM 39.6064 -103.7133 329° Northwest 421 484 34,000  Level Denver Center
Tue 01:16:18 PM 39.7042 -103.7903 330° Northwest 414 476 34,000  Level Denver Center
Tue 01:17:18 PM 39.8061 -103.8675 330° Northwest 419 482 34,000  Level Denver Center
Tue 01:18:18 PM 39.9058 -103.9422 330° Northwest 419 482 34,000  Level Denver Center
Tue 01:19:18 PM 40.0075 -104.0197 330° Northwest 419 482 34,000  Level Denver Center
Tue 01:20:18 PM 40.1092 -104.0975 330° Northwest 419 482 34,000  Level Denver Center
Tue 01:21:18 PM 40.2172 -104.1808 329° Northwest 419 482 34,000  Level Denver Center
Tue 01:22:18 PM 40.3211 -104.2617 329° Northwest 419 482 34,000  Level Denver Center
Tue 01:23:18 PM 40.4225 -104.3403 330° Northwest 419 482 34,000  Level Denver Center
Tue 01:24:18 PM 40.5242 -104.4189 329° Northwest 419 482 34,000  Level Denver Center
Tue 01:26:18 PM 40.7250 -104.5772 329° Northwest 419 482 34,000  Level Denver Center
Tue 01:27:18 PM 40.8264 -104.6567 330° Northwest 419 482 34,000  Level Denver Center
Tue 01:28:18 PM 40.9297 -104.7364 329° Northwest 432 497 34,000  Level Denver Center
Tue 01:29:18 PM 41.0161 -104.8056 330° Northwest 432 497 34,000  Level Denver Center
Tue 01:30:18 PM 41.1258 -104.8911 329° Northwest 418 481 34,000  Level Denver Center
Tue 01:31:18 PM 41.2269 -104.9717 329° Northwest 418 481 34,000  Level Denver Center
Tue 01:32:18 PM 41.3300 -105.0550 329° Northwest 424 488 34,000  Level Denver Center
Tue 01:33:18 PM 41.4228 -105.1306 329° Northwest 430 495 34,000  Level Denver Center
Tue 01:34:18 PM 41.5322 -105.2169 329° Northwest 430 495 34,000  Level Denver Center
Tue 01:35:18 PM 41.6308 -105.2956 330° Northwest 425 489 34,000  Level Denver Center
Tue 01:36:18 PM 41.7317 -105.3744 329° Northwest 425 489 34,000  Level Denver Center
Tue 01:37:18 PM 41.8219 -105.4483 329° Northwest 425 489 34,000  Level Denver Center
Tue 01:38:18 PM 41.9228 -105.5303 329° Northwest 425 489 34,000 450 Level Denver Center
Tue 01:39:18 PM 42.0317 -105.6183 329° Northwest 420 483 34,900 800 Climbing Denver Center
Tue 01:40:18 PM 42.1303 -105.6981 328° Northwest 420 483 35,600 550 Climbing Denver Center
Tue 01:41:18 PM 42.2203 -105.7728 330° Northwest 420 483 36,000 200 Climbing Denver Center
Tue 01:42:18 PM 42.3189 -105.8503 328° Northwest 414 476 36,000  Level Denver Center
Tue 01:43:18 PM 42.4297 -105.9447 329° Northwest 414 476 36,000  Level Denver Center
Tue 01:44:18 PM 42.5300 -106.0256 331° Northwest 414 476 36,000  Level Denver Center
Tue 01:45:18 PM 42.6219 -106.0956 332° Northwest 414 476 36,000  Level Denver Center
Tue 01:46:18 PM 42.7264 -106.1714 332° Northwest 420 483 36,000  Level Denver Center
Tue 01:47:18 PM 42.8411 -106.2556 331° Northwest 425 489 36,000  Level Denver Center
Tue 01:48:18 PM 42.9433 -106.3319 331° Northwest 420 483 36,000  Level Denver Center
Tue 01:49:18 PM 43.0350 -106.4028 332° Northwest 426 490 36,000  Level Denver Center
Tue 01:50:18 PM 43.1392 -106.4794 331° Northwest 426 490 36,000  Level Denver Center
Tue 01:51:18 PM 43.2497 -106.5647 332° Northwest 419 482 36,000  Level Denver Center
Tue 01:52:18 PM 43.3517 -106.6392 330° Northwest 419 482 36,000  Level Denver Center
Tue 01:53:18 PM 43.4431 -106.7108 330° Northwest 419 482 36,000  Level Denver Center
Tue 01:54:35 PM 43.5697 -106.8122 331° Northwest 417 480 36,000  Level Salt Lake Center
Tue 01:55:37 PM 43.6819 -106.8994 330° Northwest 415 478 36,000  Level Salt Lake Center
Tue 01:56:39 PM 43.7831 -106.9808 330° Northwest 416 479 36,000  Level Salt Lake Center
Tue 01:57:41 PM 43.8822 -107.0597 331° Northwest 425 489 36,000  Level Salt Lake Center
Tue 01:58:43 PM 44.0019 -107.1517 331° Northwest 437 503 36,000  Level Salt Lake Center
Tue 01:59:45 PM 44.1017 -107.2286 331° Northwest 431 496 36,000  Level Salt Lake Center
Tue 02:00:47 PM 44.2167 -107.3186 329° Northwest 426 490 36,000  Level Salt Lake Center
Tue 02:01:49 PM 44.3142 -107.3992 330° Northwest 426 490 36,000  Level Salt Lake Center
Tue 02:02:51 PM 44.4122 -107.4778 331° Northwest 425 489 36,000  Level Salt Lake Center
Tue 02:03:53 PM 44.5272 -107.5686 331° Northwest 426 490 36,000  Level Salt Lake Center
Tue 02:04:55 PM 44.6261 -107.6472 330° Northwest 426 490 36,000  Level Salt Lake Center
Tue 02:05:57 PM 44.7394 -107.7383 330° Northwest 424 488 36,000  Level Salt Lake Center
Tue 02:06:59 PM 44.8500 -107.8275 330° Northwest 422 486 36,000  Level Salt Lake Center
Tue 02:08:01 PM 44.9458 -107.9058 330° Northwest 426 490 36,000  Level Salt Lake Center
Tue 02:09:03 PM 45.0611 -107.9997 330° Northwest 430 495 36,000  Level Salt Lake Center
Tue 02:10:05 PM 45.1583 -108.0800 330° Northwest 426 490 36,000  Level Salt Lake Center
Tue 02:11:07 PM 45.2719 -108.1736 330° Northwest 424 488 36,000  Level Salt Lake Center
Tue 02:12:09 PM 45.3697 -108.2544 330° Northwest 425 489 36,000  Level Salt Lake Center
Tue 02:13:11 PM 45.4839 -108.3494 330° Northwest 426 490 36,000  Level Salt Lake Center
Tue 02:14:13 PM 45.5811 -108.4306 330° Northwest 424 488 36,000  Level Salt Lake Center
Tue 02:15:15 PM 45.6933 -108.5250 330° Northwest 420 483 36,000  Level Salt Lake Center
Tue 02:16:17 PM 45.7914 -108.6064 326° Northwest 424 488 36,000  Level Salt Lake Center
Tue 02:17:19 PM 45.8839 -108.6944 326° Northwest 417 480 36,000  Level Salt Lake Center
Tue 02:18:21 PM 45.9917 -108.7997 326° Northwest 419 482 36,000  Level Salt Lake Center
Tue 02:19:24 PM 46.0839 -108.8894 326° Northwest 418 481 36,000  Level Salt Lake Center
Tue 02:20:25 PM 46.1931 -108.9969 326° Northwest 424 488 36,000  Level Salt Lake Center
Tue 02:21:27 PM 46.2886 -109.0889 326° Northwest 429 494 36,000  Level Salt Lake Center
Tue 02:22:29 PM 46.3972 -109.1969 326° Northwest 426 490 36,000  Level Salt Lake Center
Tue 02:23:31 PM 46.4889 -109.2878 326° Northwest 420 483 36,000  Level Salt Lake Center
Tue 02:24:33 PM 46.5975 -109.3964 324° Northwest 423 487 36,000  Level Salt Lake Center
Tue 02:25:35 PM 46.6878 -109.4917 326° Northwest 420 483 36,000  Level Salt Lake Center
Tue 02:26:37 PM 46.7822 -109.5853 327° Northwest 416 479 36,000 -48 Level Salt Lake Center
Tue 02:27:39 PM 46.8775 -109.6775 325° Northwest 414 476 35,900  Descending Salt Lake Center
Tue 02:28:41 PM 46.9717 -109.7725 325° Northwest 413 475 36,000  Climbing Salt Lake Center
Tue 02:29:43 PM 47.0847 -109.8894 325° Northwest 415 478 35,900  Descending Salt Lake Center
Tue 02:30:45 PM 47.1789 -109.9856 324° Northwest 415 478 36,000 48 Climbing Salt Lake Center
Tue 02:31:47 PM 47.2706 -110.0831 325° Northwest 411 473 36,000  Level Salt Lake Center
Tue 02:32:49 PM 47.3633 -110.1800 325° Northwest 411 473 36,000  Level Salt Lake Center
Tue 02:33:51 PM 47.4564 -110.2769 325° Northwest 412 474 36,000  Level Salt Lake Center
Tue 02:34:53 PM 47.5514 -110.3750 326° Northwest 415 478 36,000  Level Salt Lake Center
Tue 02:35:55 PM 47.6664 -110.4917 324° Northwest 420 483 36,000  Level Salt Lake Center
Tue 02:36:57 PM 47.7583 -110.5900 324° Northwest 416 479 36,000 -48 Level Salt Lake Center
Tue 02:37:59 PM 47.8514 -110.6892 324° Northwest 414 476 35,900  Descending Salt Lake Center
Tue 02:39:00 PM 47.9453 -110.7897 325° Northwest 417 480 36,000  Climbing Salt Lake Center
Tue 02:40:02 PM 48.0403 -110.8911 324° Northwest 421 484 35,900  Descending Salt Lake Center
Tue 02:41:04 PM 48.1511 -111.0114 325° Northwest 417 480 36,000 48 Climbing Salt Lake Center
Tue 02:42:06 PM 48.2456 -111.1122 324° Northwest 419 482 36,000 -48 Level Salt Lake Center
Tue 02:43:08 PM 48.3386 -111.2133 324° Northwest 417 480 35,900  Descending Salt Lake Center
Tue 02:44:10 PM 48.4314 -111.3156 324° Northwest 416 479 36,000  Climbing Salt Lake Center
Tue 02:45:12 PM 48.5253 -111.4189 324° Northwest 418 481 35,900  Descending Salt Lake Center
Tue 02:46:14 PM 48.6397 -111.5461 324° Northwest 424 488 36,000  Climbing Salt Lake Center
Tue 02:47:16 PM 48.7364 -111.6519 325° Northwest 428 493 35,900 -48 Descending Salt Lake Center
Tue 02:48:18 PM 48.8325 -111.7556 329° Northwest 428 493 35,900  Level Salt Lake Center
Tue 02:49:20 PM 48.9342 -111.8483 318° Northwest 429 494 35,900 45 Level Salt Lake Center
Tue 02:50:30 PM 49.0333 -111.9833 331° Northwest 430 495 36,000 46 Climbing Edmonton Center
Tue 02:51:30 PM 49.1333 -112.0667 327° Northwest 430 495 36,000  Level Edmonton Center
Tue 02:52:30 PM 49.2333 -112.1667 323° Northwest 430 495 36,000  Level Edmonton Center
Tue 02:53:30 PM 49.3333 -112.2833 327° Northwest 430 495 36,000  Level Edmonton Center
Tue 02:54:30 PM 49.4333 -112.3833 335° Northwest 430 495 36,000  Level Edmonton Center
Tue 02:55:30 PM 49.5500 -112.4667 322° Northwest 430 495 36,000  Level Edmonton Center
Tue 02:56:30 PM 49.6333 -112.5667 331° Northwest 430 495 36,000 -450 Level Edmonton Center
Tue 02:57:30 PM 49.7500 -112.6667 327° Northwest 440 506 35,100 -1,600 Descending Edmonton Center
Tue 02:58:30 PM 49.8500 -112.7667 323° Northwest 430 495 32,800 -2,250 Descending Edmonton Center
Tue 02:59:30 PM 49.9500 -112.8833 327° Northwest 430 495 30,600 -1,650 Descending Edmonton Center
Tue 03:00:30 PM 50.0500 -112.9833 331° Northwest 430 495 29,500 -1,000 Descending Edmonton Center
Tue 03:01:30 PM 50.1667 -113.0833 327° Northwest 430 495 28,600 -750 Descending Edmonton Center
Tue 03:02:30 PM 50.2667 -113.1833 332° Northwest 440 506 28,000 -1,100 Descending Edmonton Center
Tue 03:03:30 PM 50.3667 -113.2667 328° Northwest 430 495 26,400 -2,100 Descending Edmonton Center
Tue 03:04:30 PM 50.4667 -113.3667 328° Northwest 410 472 23,800 -2,850 Descending Edmonton Center
Tue 03:05:30 PM 50.5500 -113.4500 328° Northwest 380 437 20,700 -3,300 Descending Edmonton Center
Tue 03:06:30 PM 50.6500 -113.5500 312° West 370 426 17,200 -3,300 Descending Edmonton Center
Tue 03:07:30 PM 50.7167 -113.6667 294° West 350 403 14,100 -2,700 Descending Edmonton Center
Tue 03:08:30 PM 50.7500 -113.7833 322° Northwest 350 403 11,800 -2,150 Descending Edmonton Center
Tue 03:09:30 PM 50.8167 -113.8667 294° West 310 357 9,800 -2,000 Descending Edmonton Center
Tue 03:10:30 PM 50.8500 -113.9833 335° Northwest 290 334 7,800 -1,850 Descending Edmonton Center
Tue 03:11:30 PM 50.9167 -114.0333 335° Northwest 260 299 6,100 -1,700 Descending Edmonton Center

Login

Don't have an account? Register now (free) for customized features, flight alerts, and more!